Time;durP1;ratioP1;P1;durP2;ratioP2;P2;SDS_P1;SDS_P2;PMS_P1;PMS_P2;Temp;Humidity;BMP_temperature;BMP_pressure;BME280_temperature;BME280_humidity;BME280_pressure;Samples;Min_cycle;Max_cycle;Signal;HPM_P1;HPM_P2
2021/07/15 00:02:05;;;;;;;1.05;0.63;;;;;;;;;;5091001;28;20079;-49
2021/07/15 00:04:31;;;;;;;2.75;0.60;;;;;;;;;;5084782;28;20059;-46
2021/07/15 00:06:58;;;;;;;0.60;0.60;;;;;;;;;;5087538;28;20059;-46
2021/07/15 00:09:25;;;;;;;1.15;0.60;;;;;;;;;;5079970;28;20048;-45
2021/07/15 00:11:51;;;;;;;0.50;0.50;;;;;;;;;;5083005;28;20119;-46
2021/07/15 00:14:19;;;;;;;3.33;0.60;;;;;;;;;;5091029;28;20122;-48
2021/07/15 00:16:48;;;;;;;0.60;0.60;;;;;;;;;;5090390;28;20044;-48
2021/07/15 00:19:18;;;;;;;0.68;0.60;;;;;;;;;;5085545;28;20063;-52
2021/07/15 00:21:45;;;;;;;1.25;0.60;;;;;;;;;;5087877;28;20036;-46
2021/07/15 00:24:12;;;;;;;1.27;0.60;;;;;;;;;;5089639;28;20063;-46
2021/07/15 00:26:39;;;;;;;1.05;0.50;;;;;;;;;;5089462;28;20067;-47
2021/07/15 00:29:06;;;;;;;0.60;0.60;;;;;;;;;;5090910;28;20032;-49
2021/07/15 00:31:32;;;;;;;0.57;0.57;;;;;;;;;;5090214;28;20081;-50
2021/07/15 00:33:59;;;;;;;0.60;0.60;;;;;;;;;;5080147;28;20127;-48
2021/07/15 00:36:26;;;;;;;1.95;0.68;;;;;;;;;;5090202;28;20040;-49
2021/07/15 00:38:52;;;;;;;0.60;0.60;;;;;;;;;;5089289;28;20048;-48
2021/07/15 00:41:19;;;;;;;0.60;0.60;;;;;;;;;;5091818;28;20055;-46
2021/07/15 00:43:46;;;;;;;0.82;0.70;;;;;;;;;;5089721;28;20044;-47
2021/07/15 00:46:13;;;;;;;0.60;0.60;;;;;;;;;;5074014;28;20131;-45
2021/07/15 00:48:40;;;;;;;0.60;0.60;;;;;;;;;;5087326;28;20039;-49
2021/07/15 00:51:22;;;;;;;0.70;0.70;;;;;;;;;;5081642;28;20161;-48
2021/07/15 00:53:49;;;;;;;0.60;0.60;;;;;;;;;;5085062;28;20044;-47
2021/07/15 00:56:16;;;;;;;0.60;0.60;;;;;;;;;;5085644;28;20152;-45
2021/07/15 00:58:45;;;;;;;3.92;0.60;;;;;;;;;;5088976;28;20455;-49
2021/07/15 01:01:13;;;;;;;0.70;0.70;;;;;;;;;;5089417;28;20036;-49
2021/07/15 01:03:39;;;;;;;1.98;0.63;;;;;;;;;;5088419;28;20083;-47
2021/07/15 01:06:06;;;;;;;0.60;0.60;;;;;;;;;;5090924;28;20040;-47
2021/07/15 01:08:36;;;;;;;0.60;0.60;;;;;;;;;;5088075;28;20059;-48
2021/07/15 01:11:07;;;;;;;0.70;0.70;;;;;;;;;;5088458;28;20033;-46
2021/07/15 01:13:34;;;;;;;0.60;0.60;;;;;;;;;;5097792;28;20040;-48
2021/07/15 01:16:03;;;;;;;0.60;0.60;;;;;;;;;;5095746;28;20043;-48
2021/07/15 01:18:36;;;;;;;0.90;0.60;;;;;;;;;;5075753;28;20102;-48
2021/07/15 01:21:21;;;;;;;2.72;0.60;;;;;;;;;;5088952;28;20621;-48
2021/07/15 01:24:07;;;;;;;0.50;0.50;;;;;;;;;;5089362;28;20044;-48
2021/07/15 01:26:37;;;;;;;0.90;0.90;;;;;;;;;;5090211;28;20044;-45
2021/07/15 01:29:04;;;;;;;0.60;0.60;;;;;;;;;;5089628;28;20099;-48
2021/07/15 01:31:33;;;;;;;1.50;0.77;;;;;;;;;;5089447;28;20119;-46
2021/07/15 01:34:01;;;;;;;2.15;0.70;;;;;;;;;;5088782;28;20043;-49
2021/07/15 01:36:31;;;;;;;1.70;0.70;;;;;;;;;;5087552;28;20056;-49
2021/07/15 01:39:03;;;;;;;1.10;0.60;;;;;;;;;;5089138;28;20089;-49
2021/07/15 01:41:37;;;;;;;1.27;0.52;;;;;;;;;;5083384;28;20040;-49
2021/07/15 01:44:08;;;;;;;0.55;0.55;;;;;;;;;;5080611;28;20040;-46
2021/07/15 01:46:35;;;;;;;0.60;0.60;;;;;;;;;;5090907;28;20377;-48
2021/07/15 01:49:02;;;;;;;0.60;0.60;;;;;;;;;;5087595;28;20120;-46
2021/07/15 01:51:29;;;;;;;0.60;0.60;;;;;;;;;;5088436;28;20443;-48
2021/07/15 01:53:56;;;;;;;0.50;0.50;;;;;;;;;;5086772;28;20064;-47
2021/07/15 01:56:25;;;;;;;0.75;0.70;;;;;;;;;;5094133;28;20055;-49
2021/07/15 01:58:53;;;;;;;0.85;0.65;;;;;;;;;;5091276;28;20093;-48
2021/07/15 02:01:21;;;;;;;0.60;0.60;;;;;;;;;;5094682;28;20118;-47
2021/07/15 02:03:50;;;;;;;0.75;0.70;;;;;;;;;;5092438;28;20040;-50
2021/07/15 02:06:18;;;;;;;0.77;0.77;;;;;;;;;;5096819;28;20043;-50
2021/07/15 02:08:45;;;;;;;1.10;0.70;;;;;;;;;;5096060;28;20047;-50
2021/07/15 02:11:15;;;;;;;1.27;0.70;;;;;;;;;;5092942;28;20044;-49
2021/07/15 02:13:42;;;;;;;3.05;0.70;;;;;;;;;;5093267;28;20052;-47
2021/07/15 02:16:10;;;;;;;3.80;0.60;;;;;;;;;;5094295;28;20038;-48
2021/07/15 02:18:46;;;;;;;0.60;0.60;;;;;;;;;;5095207;28;20040;-49
2021/07/15 02:21:14;;;;;;;0.73;0.73;;;;;;;;;;5095242;28;20070;-49
2021/07/15 02:23:42;;;;;;;1.20;0.60;;;;;;;;;;5084847;28;20048;-45
2021/07/15 02:26:09;;;;;;;0.93;0.90;;;;;;;;;;5088228;28;20612;-47
2021/07/15 02:28:36;;;;;;;0.60;0.60;;;;;;;;;;5085565;28;20070;-45
2021/07/15 02:31:10;;;;;;;0.70;0.70;;;;;;;;;;5103381;28;20127;-46
2021/07/15 02:33:38;;;;;;;0.70;0.70;;;;;;;;;;5091342;28;20536;-48
2021/07/15 02:36:06;;;;;;;1.42;0.73;;;;;;;;;;5089160;28;20059;-46
2021/07/15 02:38:34;;;;;;;0.80;0.80;;;;;;;;;;5092182;28;20028;-47
2021/07/15 02:41:00;;;;;;;2.05;0.80;;;;;;;;;;5096664;28;20503;-50
2021/07/15 02:43:28;;;;;;;0.88;0.88;;;;;;;;;;5096333;28;20074;-47
2021/07/15 02:45:56;;;;;;;1.00;0.70;;;;;;;;;;5093978;28;20047;-46
2021/07/15 02:48:23;;;;;;;1.33;0.60;;;;;;;;;;5096247;28;20126;-48
2021/07/15 02:50:50;;;;;;;1.60;0.80;;;;;;;;;;5084128;28;20123;-46
2021/07/15 02:53:18;;;;;;;0.65;0.60;;;;;;;;;;5090296;28;20062;-47
2021/07/15 02:56:01;;;;;;;0.70;0.70;;;;;;;;;;5077314;28;20529;-48
2021/07/15 02:58:33;;;;;;;1.30;0.70;;;;;;;;;;5094268;28;20097;-46
2021/07/15 03:01:00;;;;;;;0.70;0.70;;;;;;;;;;5096212;28;20593;-47
2021/07/15 03:03:48;;;;;;;0.70;0.70;;;;;;;;;;5081863;28;20032;-47
2021/07/15 03:06:24;;;;;;;0.70;0.70;;;;;;;;;;5090500;28;20560;-48
2021/07/15 03:08:56;;;;;;;0.70;0.70;;;;;;;;;;5091734;28;20037;-49
2021/07/15 03:11:28;;;;;;;0.70;0.70;;;;;;;;;;5090876;28;20032;-49
2021/07/15 03:13:56;;;;;;;0.60;0.60;;;;;;;;;;5088463;28;20418;-48
2021/07/15 03:16:23;;;;;;;0.75;0.70;;;;;;;;;;5092937;28;20301;-49
2021/07/15 03:18:52;;;;;;;2.88;0.80;;;;;;;;;;5083066;28;20051;-49
2021/07/15 03:21:21;;;;;;;1.27;0.60;;;;;;;;;;5090252;28;20139;-47
2021/07/15 03:23:48;;;;;;;1.92;1.40;;;;;;;;;;5083436;28;20044;-46
2021/07/15 03:26:17;;;;;;;0.70;0.70;;;;;;;;;;5091998;28;20067;-45
2021/07/15 03:28:46;;;;;;;0.70;0.70;;;;;;;;;;5090187;28;20032;-46
2021/07/15 03:31:15;;;;;;;0.93;0.77;;;;;;;;;;5091059;28;20154;-48
2021/07/15 03:33:42;;;;;;;0.75;0.75;;;;;;;;;;5093251;28;20037;-49
2021/07/15 03:36:10;;;;;;;0.80;0.80;;;;;;;;;;5089360;28;20047;-46
2021/07/15 03:38:40;;;;;;;0.70;0.70;;;;;;;;;;5091003;28;20107;-45
2021/07/15 03:41:09;;;;;;;2.67;0.90;;;;;;;;;;5083733;28;20531;-46
2021/07/15 03:43:38;;;;;;;2.95;0.60;;;;;;;;;;5092982;28;20054;-46
2021/07/15 03:46:06;;;;;;;2.05;0.70;;;;;;;;;;5088065;28;20021;-50
2021/07/15 03:48:33;;;;;;;0.80;0.80;;;;;;;;;;5078580;28;20080;-45
2021/07/15 03:51:01;;;;;;;1.73;1.15;;;;;;;;;;5091171;28;20047;-49
2021/07/15 03:53:28;;;;;;;0.75;0.75;;;;;;;;;;5091130;28;20043;-50
2021/07/15 03:55:56;;;;;;;0.98;0.82;;;;;;;;;;5090419;28;20028;-47
2021/07/15 03:58:23;;;;;;;1.00;0.70;;;;;;;;;;5087224;28;20033;-46
2021/07/15 04:00:51;;;;;;;1.42;1.33;;;;;;;;;;5077873;28;20093;-49
2021/07/15 04:03:19;;;;;;;0.80;0.80;;;;;;;;;;5091234;28;20064;-44
2021/07/15 04:05:46;;;;;;;0.73;0.73;;;;;;;;;;5090439;28;20059;-48
2021/07/15 04:08:13;;;;;;;0.90;0.70;;;;;;;;;;5091021;28;20052;-47
2021/07/15 04:10:41;;;;;;;1.70;0.90;;;;;;;;;;5085873;28;20094;-49
2021/07/15 04:13:08;;;;;;;2.67;0.88;;;;;;;;;;5089199;28;20036;-45
2021/07/15 04:15:53;;;;;;;0.70;0.70;;;;;;;;;;5087844;28;20040;-49
2021/07/15 04:18:27;;;;;;;2.05;0.70;;;;;;;;;;5090572;28;20032;-46
2021/07/15 04:20:57;;;;;;;2.60;0.90;;;;;;;;;;5088364;28;20047;-48
2021/07/15 04:23:24;;;;;;;0.90;0.90;;;;;;;;;;5080896;28;20051;-48
2021/07/15 04:25:54;;;;;;;0.80;0.80;;;;;;;;;;5090184;28;20094;-45
2021/07/15 04:28:22;;;;;;;0.95;0.80;;;;;;;;;;5088975;28;20067;-49
2021/07/15 04:30:51;;;;;;;0.95;0.90;;;;;;;;;;5090366;28;20074;-46
2021/07/15 04:33:17;;;;;;;1.92;0.70;;;;;;;;;;5087908;28;20032;-48
2021/07/15 04:35:46;;;;;;;0.80;0.80;;;;;;;;;;5091424;28;20502;-48
2021/07/15 04:38:13;;;;;;;0.80;0.80;;;;;;;;;;5091108;28;20120;-45
2021/07/15 04:40:40;;;;;;;0.60;0.60;;;;;;;;;;5082172;28;20036;-48
2021/07/15 04:43:08;;;;;;;0.80;0.80;;;;;;;;;;5089219;28;20085;-49
2021/07/15 04:45:38;;;;;;;0.65;0.65;;;;;;;;;;5089578;28;20717;-49
2021/07/15 04:48:05;;;;;;;1.88;0.90;;;;;;;;;;5090702;28;20109;-49
2021/07/15 04:50:32;;;;;;;2.53;0.73;;;;;;;;;;5090163;28;20094;-47
2021/07/15 04:53:07;;;;;;;0.85;0.85;;;;;;;;;;5076202;28;20068;-48
2021/07/15 04:55:34;;;;;;;0.80;0.80;;;;;;;;;;5081117;28;20044;-49
2021/07/15 04:58:04;;;;;;;0.80;0.80;;;;;;;;;;5083242;28;20078;-48
2021/07/15 05:00:32;;;;;;;1.35;0.77;;;;;;;;;;5073399;28;20036;-48
2021/07/15 05:03:00;;;;;;;1.23;1.20;;;;;;;;;;5083876;28;20042;-49
2021/07/15 05:05:27;;;;;;;0.70;0.70;;;;;;;;;;5076886;28;20134;-48
2021/07/15 05:07:54;;;;;;;1.00;0.70;;;;;;;;;;5079599;28;20432;-47
2021/07/15 05:10:20;;;;;;;1.00;0.70;;;;;;;;;;5083653;28;20039;-48
2021/07/15 05:12:47;;;;;;;0.70;0.70;;;;;;;;;;5089761;28;20093;-45
2021/07/15 05:15:14;;;;;;;1.17;0.82;;;;;;;;;;5082506;28;20029;-46
2021/07/15 05:17:40;;;;;;;1.38;0.80;;;;;;;;;;5076781;28;20070;-47
2021/07/15 05:20:08;;;;;;;1.48;0.80;;;;;;;;;;5077916;28;20434;-49
2021/07/15 05:22:36;;;;;;;0.70;0.70;;;;;;;;;;5085075;28;20487;-51
2021/07/15 05:25:07;;;;;;;1.40;0.95;;;;;;;;;;5077697;28;20380;-49
2021/07/15 05:27:37;;;;;;;0.80;0.80;;;;;;;;;;5089111;28;20366;-54
2021/07/15 05:30:07;;;;;;;1.83;0.70;;;;;;;;;;5088692;28;20096;-54
2021/07/15 05:32:34;;;;;;;0.80;0.80;;;;;;;;;;5090084;28;20632;-54
2021/07/15 05:35:00;;;;;;;0.93;0.73;;;;;;;;;;5086104;28;20444;-54
2021/07/15 05:37:27;;;;;;;0.73;0.57;;;;;;;;;;5073998;28;20044;-55
2021/07/15 05:39:54;;;;;;;0.70;0.70;;;;;;;;;;5092030;28;20039;-53
2021/07/15 05:42:20;;;;;;;1.65;0.60;;;;;;;;;;5088074;28;20040;-54
2021/07/15 05:44:49;;;;;;;0.60;0.60;;;;;;;;;;5073280;28;20082;-54
2021/07/15 05:47:16;;;;;;;0.93;0.88;;;;;;;;;;5082491;28;20044;-54
2021/07/15 05:49:44;;;;;;;1.42;1.35;;;;;;;;;;5073946;28;20108;-55
2021/07/15 05:52:12;;;;;;;0.63;0.63;;;;;;;;;;5089638;28;20476;-54
2021/07/15 05:54:39;;;;;;;2.22;0.70;;;;;;;;;;5086382;28;20519;-54
2021/07/15 05:57:06;;;;;;;0.70;0.70;;;;;;;;;;5089288;28;20059;-54
2021/07/15 05:59:35;;;;;;;1.25;0.65;;;;;;;;;;5087408;28;20153;-54
2021/07/15 06:02:02;;;;;;;2.15;0.50;;;;;;;;;;5090585;28;20070;-54
2021/07/15 06:04:29;;;;;;;0.60;0.60;;;;;;;;;;5076454;28;20039;-54
2021/07/15 06:06:55;;;;;;;0.60;0.60;;;;;;;;;;5082915;28;20082;-54
2021/07/15 06:09:22;;;;;;;0.63;0.63;;;;;;;;;;5088565;28;20032;-53
2021/07/15 06:11:49;;;;;;;2.78;0.60;;;;;;;;;;5082834;28;20075;-53
2021/07/15 06:14:17;;;;;;;0.60;0.60;;;;;;;;;;5077056;28;20081;-54
2021/07/15 06:16:43;;;;;;;0.70;0.70;;;;;;;;;;5076142;28;20040;-53
2021/07/15 06:19:10;;;;;;;0.50;0.50;;;;;;;;;;5083042;28;20428;-54
2021/07/15 06:21:37;;;;;;;0.70;0.70;;;;;;;;;;5071966;28;20082;-54
2021/07/15 06:24:04;;;;;;;1.60;0.68;;;;;;;;;;5083215;28;20562;-55
2021/07/15 06:26:30;;;;;;;2.78;0.70;;;;;;;;;;5084107;28;20077;-54
2021/07/15 06:28:57;;;;;;;0.70;0.70;;;;;;;;;;5089128;28;20046;-54
2021/07/15 06:31:25;;;;;;;1.50;0.70;;;;;;;;;;5087342;28;20055;-54
2021/07/15 06:33:55;;;;;;;0.85;0.60;;;;;;;;;;5072398;28;20135;-54
2021/07/15 06:36:22;;;;;;;0.60;0.60;;;;;;;;;;5079684;28;20040;-54
2021/07/15 06:38:49;;;;;;;0.60;0.60;;;;;;;;;;5094303;28;20089;-54
2021/07/15 06:41:16;;;;;;;0.95;0.60;;;;;;;;;;5097795;28;20433;-54
2021/07/15 06:43:43;;;;;;;2.75;0.63;;;;;;;;;;5090533;28;20059;-54
2021/07/15 06:46:11;;;;;;;0.70;0.70;;;;;;;;;;5077092;28;20044;-53
2021/07/15 06:48:39;;;;;;;3.35;0.60;;;;;;;;;;5093447;28;20094;-54
2021/07/15 06:51:06;;;;;;;0.90;0.90;;;;;;;;;;5093184;28;20056;-55
2021/07/15 06:53:33;;;;;;;0.63;0.60;;;;;;;;;;5092285;28;20039;-55
2021/07/15 06:56:00;;;;;;;2.08;0.60;;;;;;;;;;5069205;28;20051;-55
2021/07/15 06:58:27;;;;;;;0.63;0.60;;;;;;;;;;5088406;28;20036;-55
2021/07/15 07:00:56;;;;;;;0.90;0.90;;;;;;;;;;5091150;28;20043;-54
2021/07/15 07:03:23;;;;;;;0.85;0.50;;;;;;;;;;5090349;28;20051;-55
2021/07/15 07:05:50;;;;;;;0.77;0.60;;;;;;;;;;5091921;28;20040;-55
2021/07/15 07:08:17;;;;;;;1.42;0.60;;;;;;;;;;5086267;28;20041;-55
2021/07/15 07:10:44;;;;;;;0.88;0.70;;;;;;;;;;5082899;28;20040;-55
2021/07/15 07:13:11;;;;;;;0.50;0.50;;;;;;;;;;5085421;28;20048;-55
2021/07/15 07:15:41;;;;;;;1.85;1.15;;;;;;;;;;5094730;28;20500;-55
2021/07/15 07:18:07;;;;;;;1.95;0.60;;;;;;;;;;5075736;28;20075;-55
2021/07/15 07:20:34;;;;;;;1.30;0.60;;;;;;;;;;5083414;28;20309;-56
2021/07/15 07:23:02;;;;;;;2.65;0.57;;;;;;;;;;5080264;28;20484;-55
2021/07/15 07:25:29;;;;;;;1.00;0.70;;;;;;;;;;5079833;28;20049;-55
2021/07/15 07:27:56;;;;;;;0.73;0.50;;;;;;;;;;5092150;28;20074;-55
2021/07/15 07:30:23;;;;;;;1.00;0.68;;;;;;;;;;5094347;28;20036;-56
2021/07/15 07:32:50;;;;;;;3.42;0.55;;;;;;;;;;5083803;28;20052;-56
2021/07/15 07:35:17;;;;;;;1.17;0.57;;;;;;;;;;5081227;28;20035;-55
2021/07/15 07:37:44;;;;;;;1.85;0.70;;;;;;;;;;5074937;28;20113;-56
2021/07/15 07:40:11;;;;;;;0.77;0.57;;;;;;;;;;5088031;28;20032;-55
2021/07/15 07:42:40;;;;;;;1.58;0.60;;;;;;;;;;5076215;28;20114;-55
2021/07/15 07:45:07;;;;;;;0.63;0.50;;;;;;;;;;5087369;28;20404;-55
2021/07/15 07:47:34;;;;;;;0.50;0.50;;;;;;;;;;5084328;28;20043;-56
2021/07/15 07:50:00;;;;;;;2.58;0.70;;;;;;;;;;5075050;28;20045;-55
2021/07/15 07:52:27;;;;;;;3.13;0.50;;;;;;;;;;5085628;28;20514;-58
2021/07/15 07:54:54;;;;;;;0.82;0.50;;;;;;;;;;5077929;28;20101;-59
2021/07/15 07:57:20;;;;;;;0.90;0.60;;;;;;;;;;5090600;28;20048;-59
2021/07/15 07:59:47;;;;;;;0.50;0.50;;;;;;;;;;5086466;28;20520;-59
2021/07/15 08:02:14;;;;;;;1.77;0.60;;;;;;;;;;5073410;28;20054;-59
2021/07/15 08:04:41;;;;;;;2.40;0.50;;;;;;;;;;5086461;28;20040;-59
2021/07/15 08:07:09;;;;;;;1.60;0.50;;;;;;;;;;5078219;28;20075;-59
2021/07/15 08:09:42;;;;;;;0.50;0.50;;;;;;;;;;5092429;28;20033;-59
2021/07/15 08:12:12;;;;;;;0.93;0.50;;;;;;;;;;5087606;28;20074;-59
2021/07/15 08:14:39;;;;;;;2.50;0.60;;;;;;;;;;5089893;28;20039;-59
2021/07/15 08:17:06;;;;;;;0.73;0.40;;;;;;;;;;5083089;28;20068;-59
2021/07/15 08:19:33;;;;;;;1.20;0.40;;;;;;;;;;5080449;28;20036;-59
2021/07/15 08:22:00;;;;;;;1.42;0.52;;;;;;;;;;5074434;28;20451;-59
2021/07/15 08:24:26;;;;;;;3.33;0.50;;;;;;;;;;5087524;28;20554;-60
2021/07/15 08:26:53;;;;;;;0.98;0.50;;;;;;;;;;5085896;28;20385;-59
2021/07/15 08:29:20;;;;;;;0.40;0.40;;;;;;;;;;5082567;28;20040;-59
2021/07/15 08:31:47;;;;;;;2.75;0.43;;;;;;;;;;5082232;28;20427;-59
2021/07/15 08:34:14;;;;;;;1.20;0.55;;;;;;;;;;5073701;28;20068;-59
2021/07/15 08:36:41;;;;;;;0.63;0.40;;;;;;;;;;5088430;28;20404;-59
2021/07/15 08:39:09;;;;;;;1.38;0.40;;;;;;;;;;5090769;28;20048;-59
2021/07/15 08:41:36;;;;;;;0.30;0.30;;;;;;;;;;5080853;28;20128;-60
2021/07/15 08:44:06;;;;;;;2.00;0.50;;;;;;;;;;5089479;28;20032;-59
2021/07/15 08:46:38;;;;;;;0.57;0.40;;;;;;;;;;5072884;28;20484;-60
2021/07/15 08:49:05;;;;;;;0.93;0.30;;;;;;;;;;5088955;28;20357;-59
2021/07/15 08:51:36;;;;;;;0.47;0.40;;;;;;;;;;5088199;28;20591;-59
2021/07/15 08:54:04;;;;;;;0.35;0.30;;;;;;;;;;5076979;28;20040;-59
2021/07/15 08:56:42;;;;;;;2.60;0.43;;;;;;;;;;5085547;28;20123;-59
2021/07/15 08:59:12;;;;;;;0.30;0.30;;;;;;;;;;5090992;28;20044;-59
2021/07/15 09:01:40;;;;;;;1.30;0.30;;;;;;;;;;5087123;28;20101;-60
2021/07/15 09:04:08;;;;;;;1.30;0.35;;;;;;;;;;5088184;28;20066;-60
2021/07/15 09:06:34;;;;;;;0.30;0.30;;;;;;;;;;5089670;28;20044;-60
2021/07/15 09:09:02;;;;;;;0.40;0.30;;;;;;;;;;5084450;28;20040;-59
2021/07/15 09:11:28;;;;;;;0.50;0.30;;;;;;;;;;5078143;28;20447;-59
2021/07/15 09:13:55;;;;;;;0.30;0.30;;;;;;;;;;5081251;28;20584;-59
2021/07/15 09:16:22;;;;;;;0.60;0.60;;;;;;;;;;5089096;28;20503;-59
2021/07/15 09:19:03;;;;;;;0.30;0.30;;;;;;;;;;5089434;28;20031;-59
2021/07/15 09:21:32;;;;;;;1.25;0.35;;;;;;;;;;5091807;28;20044;-59
2021/07/15 09:23:59;;;;;;;0.40;0.40;;;;;;;;;;5089804;28;20047;-59
2021/07/15 09:26:30;;;;;;;1.13;0.35;;;;;;;;;;5074955;28;20121;-60
2021/07/15 09:29:23;;;;;;;1.17;0.40;;;;;;;;;;5085693;28;20032;-60
2021/07/15 09:31:59;;;;;;;0.40;0.40;;;;;;;;;;5083675;28;20542;-60
2021/07/15 09:34:28;;;;;;;0.70;0.50;;;;;;;;;;5089979;28;20674;-60
2021/07/15 09:36:55;;;;;;;0.30;0.30;;;;;;;;;;5088691;28;20094;-59
2021/07/15 09:39:23;;;;;;;0.32;0.30;;;;;;;;;;5087650;28;20036;-59
2021/07/15 09:42:16;;;;;;;0.40;0.40;;;;;;;;;;5090497;28;20044;-59
2021/07/15 09:44:43;;;;;;;0.70;0.30;;;;;;;;;;5086809;28;20124;-58
2021/07/15 09:47:29;;;;;;;0.95;0.30;;;;;;;;;;5077191;28;20098;-58
2021/07/15 09:49:56;;;;;;;1.60;0.40;;;;;;;;;;5098251;28;20096;-60
2021/07/15 09:52:23;;;;;;;1.42;0.40;;;;;;;;;;5097424;28;20055;-59
2021/07/15 09:54:50;;;;;;;3.20;0.60;;;;;;;;;;5073192;28;20134;-59
2021/07/15 09:57:26;;;;;;;1.35;0.30;;;;;;;;;;5087271;28;20496;-59
2021/07/15 09:59:56;;;;;;;0.50;0.40;;;;;;;;;;5086907;28;20032;-59
2021/07/15 10:02:29;;;;;;;0.70;0.30;;;;;;;;;;5089601;28;20032;-59
2021/07/15 10:04:56;;;;;;;0.40;0.40;;;;;;;;;;5088668;28;20040;-59
2021/07/15 10:07:23;;;;;;;0.60;0.40;;;;;;;;;;5069619;28;20044;-59
2021/07/15 10:10:10;;;;;;;1.05;0.93;;;;;;;;;;5086766;28;20087;-59
2021/07/15 10:12:36;;;;;;;0.95;0.40;;;;;;;;;;5083755;28;20036;-59
2021/07/15 10:15:07;;;;;;;0.60;0.32;;;;;;;;;;5089773;28;20032;-59
2021/07/15 10:17:41;;;;;;;2.63;0.40;;;;;;;;;;5088910;28;20040;-59
2021/07/15 10:20:08;;;;;;;1.95;0.40;;;;;;;;;;5091438;28;20035;-59
2021/07/15 10:22:35;;;;;;;0.40;0.40;;;;;;;;;;5094144;28;20063;-59
2021/07/15 10:25:04;;;;;;;0.75;0.30;;;;;;;;;;5098556;28;20566;-59
2021/07/15 10:27:46;;;;;;;1.67;0.30;;;;;;;;;;5091935;28;20580;-59
2021/07/15 10:30:14;;;;;;;0.85;0.40;;;;;;;;;;5091061;28;20044;-58
2021/07/15 10:32:41;;;;;;;0.30;0.30;;;;;;;;;;5083170;28;20036;-60
2021/07/15 10:35:09;;;;;;;0.38;0.30;;;;;;;;;;5094053;28;20041;-59
2021/07/15 10:37:40;;;;;;;0.22;0.22;;;;;;;;;;5092888;28;20393;-59
2021/07/15 10:40:16;;;;;;;0.63;0.30;;;;;;;;;;5089613;28;20139;-60
2021/07/15 10:42:43;;;;;;;0.20;0.20;;;;;;;;;;5092860;28;20541;-59
2021/07/15 10:45:11;;;;;;;0.50;0.30;;;;;;;;;;5092805;28;20506;-59
2021/07/15 10:47:38;;;;;;;0.20;0.20;;;;;;;;;;5082201;28;20119;-59
2021/07/15 10:50:06;;;;;;;1.15;0.40;;;;;;;;;;5089535;28;20048;-60
2021/07/15 10:52:34;;;;;;;0.30;0.30;;;;;;;;;;5090492;28;20048;-60
2021/07/15 10:55:05;;;;;;;0.30;0.30;;;;;;;;;;5093783;28;20119;-60
2021/07/15 10:57:31;;;;;;;0.30;0.30;;;;;;;;;;5090921;28;20032;-60
2021/07/15 11:00:17;;;;;;;0.30;0.30;;;;;;;;;;5080407;28;20071;-59
2021/07/15 11:02:44;;;;;;;1.80;0.40;;;;;;;;;;5091595;28;20036;-59
2021/07/15 11:05:26;;;;;;;0.30;0.28;;;;;;;;;;5091360;28;20040;-60
2021/07/15 11:07:53;;;;;;;0.30;0.30;;;;;;;;;;5085250;28;20044;-59
2021/07/15 11:10:23;;;;;;;0.32;0.30;;;;;;;;;;5088172;28;20097;-60
2021/07/15 11:12:59;;;;;;;3.10;0.38;;;;;;;;;;5080432;28;20269;-59
2021/07/15 11:15:45;;;;;;;0.30;0.30;;;;;;;;;;5086213;28;20089;-60
2021/07/15 11:18:31;;;;;;;0.57;0.30;;;;;;;;;;5091021;28;20028;-60
2021/07/15 11:21:16;;;;;;;0.30;0.30;;;;;;;;;;5090919;28;20425;-59
2021/07/15 11:23:42;;;;;;;0.80;0.30;;;;;;;;;;5092497;28;20500;-60
2021/07/15 11:26:32;;;;;;;1.33;0.25;;;;;;;;;;5091390;28;20089;-60
2021/07/15 11:28:59;;;;;;;0.55;0.30;;;;;;;;;;5080111;28;20672;-60
2021/07/15 11:31:41;;;;;;;0.30;0.30;;;;;;;;;;5092656;28;20036;-60
2021/07/15 11:34:08;;;;;;;1.60;0.30;;;;;;;;;;5091681;28;20040;-59
2021/07/15 11:36:36;;;;;;;0.60;0.38;;;;;;;;;;5074173;28;20054;-60
2021/07/15 11:39:05;;;;;;;1.20;0.30;;;;;;;;;;5090834;28;20036;-60
2021/07/15 11:41:41;;;;;;;0.68;0.68;;;;;;;;;;5093790;28;20060;-56
2021/07/15 11:44:08;;;;;;;2.40;0.30;;;;;;;;;;5093502;28;20093;-56
2021/07/15 11:46:38;;;;;;;0.77;0.30;;;;;;;;;;5090284;28;20078;-56
2021/07/15 11:49:09;;;;;;;0.90;0.30;;;;;;;;;;5089409;28;20059;-56
2021/07/15 11:51:38;;;;;;;0.82;0.28;;;;;;;;;;5092662;28;20885;-57
2021/07/15 11:54:24;;;;;;;0.30;0.30;;;;;;;;;;5089849;28;20107;-56
2021/07/15 11:56:58;;;;;;;0.30;0.20;;;;;;;;;;5087883;28;20031;-58
2021/07/15 11:59:36;;;;;;;0.40;0.22;;;;;;;;;;5091626;28;20028;-56
2021/07/15 12:02:03;;;;;;;1.60;0.30;;;;;;;;;;5090904;28;20047;-56
2021/07/15 12:04:51;;;;;;;1.27;0.20;;;;;;;;;;5090703;28;20059;-56
2021/07/15 12:07:19;;;;;;;0.50;0.32;;;;;;;;;;5090292;28;20055;-55
2021/07/15 12:09:47;;;;;;;0.73;0.30;;;;;;;;;;5089578;28;20040;-56
2021/07/15 12:12:15;;;;;;;0.43;0.35;;;;;;;;;;5092203;28;20445;-56
2021/07/15 12:14:50;;;;;;;0.30;0.30;;;;;;;;;;5089708;28;20085;-56
2021/07/15 12:17:17;;;;;;;0.30;0.30;;;;;;;;;;5091180;28;20032;-56
2021/07/15 12:19:56;;;;;;;0.40;0.30;;;;;;;;;;5091477;28;20032;-56
2021/07/15 12:22:23;;;;;;;0.93;0.30;;;;;;;;;;5090250;28;20039;-56
2021/07/15 12:25:05;;;;;;;0.40;0.30;;;;;;;;;;5074216;28;20044;-56
2021/07/15 12:27:38;;;;;;;1.08;0.40;;;;;;;;;;5092426;28;20569;-56
2021/07/15 12:30:05;;;;;;;0.68;0.30;;;;;;;;;;5089128;28;20123;-56
2021/07/15 12:32:32;;;;;;;1.00;0.30;;;;;;;;;;5097536;28;20043;-57
2021/07/15 12:34:59;;;;;;;0.45;0.45;;;;;;;;;;5092754;28;20115;-56
2021/07/15 12:37:29;;;;;;;1.50;0.30;;;;;;;;;;5090942;28;20144;-56
2021/07/15 12:39:57;;;;;;;0.30;0.30;;;;;;;;;;5072050;28;20503;-57
2021/07/15 12:42:24;;;;;;;1.13;0.30;;;;;;;;;;5093738;28;20040;-57
2021/07/15 12:44:50;;;;;;;0.30;0.30;;;;;;;;;;5088377;28;20110;-57
2021/07/15 12:47:17;;;;;;;2.25;0.73;;;;;;;;;;5091073;28;20097;-45
2021/07/15 12:49:44;;;;;;;0.40;0.30;;;;;;;;;;5089363;28;20078;-44
2021/07/15 12:52:11;;;;;;;0.25;0.25;;;;;;;;;;5098299;28;20079;-45
2021/07/15 12:54:39;;;;;;;1.30;0.30;;;;;;;;;;5096964;28;20040;-45
2021/07/15 12:57:07;;;;;;;0.45;0.30;;;;;;;;;;5091278;28;20464;-42
2021/07/15 12:59:34;;;;;;;1.02;0.30;;;;;;;;;;5089371;28;20071;-43
2021/07/15 13:02:33;;;;;;;0.75;0.30;;;;;;;;;;5088869;28;20039;-43
2021/07/15 13:05:14;;;;;;;0.60;0.30;;;;;;;;;;5076438;28;20048;-44
2021/07/15 13:07:43;;;;;;;0.30;0.30;;;;;;;;;;5088394;28;20393;-45
2021/07/15 13:10:21;;;;;;;0.40;0.30;;;;;;;;;;5088725;28;20085;-43
2021/07/15 13:15:33;;;;;;;1.15;0.20;;;;;;;;;;5090089;28;20122;-44
2021/07/15 13:18:10;;;;;;;1.00;0.30;;;;;;;;;;5079296;28;20036;-43
2021/07/15 13:20:41;;;;;;;0.73;0.20;;;;;;;;;;5089030;28;20464;-44
2021/07/15 13:23:08;;;;;;;1.33;0.30;;;;;;;;;;5087044;28;20033;-45
2021/07/15 13:25:34;;;;;;;0.55;0.30;;;;;;;;;;5106851;28;20039;-43
2021/07/15 13:28:06;;;;;;;0.38;0.38;;;;;;;;;;5091436;28;20507;-43
2021/07/15 13:30:34;;;;;;;0.70;0.30;;;;;;;;;;5082733;28;20134;-44
2021/07/15 13:33:29;;;;;;;0.60;0.60;;;;;;;;;;5084707;28;20055;-43
2021/07/15 13:35:55;;;;;;;0.30;0.28;;;;;;;;;;5084919;28;20197;-44
2021/07/15 13:38:22;;;;;;;0.30;0.20;;;;;;;;;;5090519;28;20055;-43
2021/07/15 13:40:49;;;;;;;1.52;0.28;;;;;;;;;;5101417;28;20071;-43
2021/07/15 13:43:17;;;;;;;0.45;0.30;;;;;;;;;;5093825;28;20093;-43
2021/07/15 13:45:44;;;;;;;1.25;0.20;;;;;;;;;;5089023;28;20149;-42
2021/07/15 13:48:14;;;;;;;0.40;0.20;;;;;;;;;;5084680;28;20123;-44
2021/07/15 13:50:42;;;;;;;0.30;0.20;;;;;;;;;;5088376;28;20077;-43
2021/07/15 13:53:10;;;;;;;0.30;0.30;;;;;;;;;;5089761;28;20802;-43
2021/07/15 13:55:37;;;;;;;0.40;0.30;;;;;;;;;;5088729;28;20036;-45
2021/07/15 13:58:04;;;;;;;3.10;0.63;;;;;;;;;;5087974;28;20039;-44
2021/07/15 14:00:32;;;;;;;1.95;0.30;;;;;;;;;;5082781;28;20036;-43
2021/07/15 14:03:00;;;;;;;0.40;0.30;;;;;;;;;;5086410;28;20430;-45
2021/07/15 14:05:32;;;;;;;0.40;0.30;;;;;;;;;;5090888;28;20040;-46
2021/07/15 14:08:02;;;;;;;1.15;0.30;;;;;;;;;;5089394;28;20036;-43
2021/07/15 14:10:29;;;;;;;0.38;0.30;;;;;;;;;;5087938;28;20446;-43
2021/07/15 14:12:56;;;;;;;1.00;0.30;;;;;;;;;;5090437;28;20093;-43
2021/07/15 14:15:32;;;;;;;0.65;0.30;;;;;;;;;;5088963;28;20043;-43
2021/07/15 14:18:01;;;;;;;1.45;0.32;;;;;;;;;;5089396;28;20032;-43
2021/07/15 14:20:29;;;;;;;0.50;0.30;;;;;;;;;;5084702;28;20036;-43
2021/07/15 14:22:56;;;;;;;0.40;0.20;;;;;;;;;;5077721;28;20062;-45
2021/07/15 14:25:24;;;;;;;0.80;0.30;;;;;;;;;;5089784;28;20040;-43
2021/07/15 14:27:51;;;;;;;0.30;0.30;;;;;;;;;;5088839;28;20079;-44
2021/07/15 14:30:22;;;;;;;0.40;0.20;;;;;;;;;;5102331;28;20060;-43
2021/07/15 14:32:49;;;;;;;0.35;0.30;;;;;;;;;;5090405;28;20112;-46
2021/07/15 14:35:16;;;;;;;0.30;0.30;;;;;;;;;;5088487;28;20059;-43
2021/07/15 14:37:43;;;;;;;0.20;0.20;;;;;;;;;;5089219;28;20102;-46
2021/07/15 14:40:10;;;;;;;0.22;0.22;;;;;;;;;;5089103;28;20047;-45
2021/07/15 14:42:37;;;;;;;0.32;0.30;;;;;;;;;;5089132;28;20079;-44
2021/07/15 14:45:04;;;;;;;0.20;0.20;;;;;;;;;;5090751;28;20440;-47
2021/07/15 14:47:31;;;;;;;1.20;0.30;;;;;;;;;;5089373;28;20119;-43
2021/07/15 14:49:58;;;;;;;0.20;0.20;;;;;;;;;;5089179;28;20040;-44
2021/07/15 14:52:25;;;;;;;1.05;0.20;;;;;;;;;;5087518;28;20044;-44
2021/07/15 14:54:51;;;;;;;0.45;0.20;;;;;;;;;;5088105;28;20064;-45
2021/07/15 14:57:20;;;;;;;0.75;0.20;;;;;;;;;;5088622;28;20036;-44
2021/07/15 14:59:47;;;;;;;0.20;0.20;;;;;;;;;;5087019;28;20081;-45